Time;durP1;ratioP1;P1;durP2;ratioP2;P2;SDS_P1;SDS_P2;PMS_P1;PMS_P2;Temp;Humidity;BMP_temperature;BMP_pressure;BME280_temperature;BME280_humidity;BME280_pressure;Samples;Min_cycle;Max_cycle;Signal;HPM_P1;HPM_P2
2022/02/28 00:02:38;;;;;;;12.85;7.05;;;22.80;35.00;;;;;;6155434;28;80541;-67
2022/02/28 00:05:39;;;;;;;12.30;6.85;;;22.80;35.10;;;;;;6147962;28;81523;-66
2022/02/28 00:08:39;;;;;;;14.15;7.10;;;22.80;35.00;;;;;;6158006;28;80470;-66
2022/02/28 00:11:40;;;;;;;13.10;7.43;;;22.70;35.00;;;;;;6159659;28;80595;-65
2022/02/28 00:14:40;;;;;;;11.50;6.20;;;22.70;35.10;;;;;;6160411;28;80857;-67
2022/02/28 00:17:41;;;;;;;13.63;7.53;;;22.70;35.10;;;;;;6156646;28;80621;-66
2022/02/28 00:20:42;;;;;;;12.48;7.32;;;22.70;35.10;;;;;;6156843;28;80359;-66
2022/02/28 00:23:42;;;;;;;12.40;6.72;;;22.70;35.00;;;;;;6147836;28;80110;-66
2022/02/28 00:26:43;;;;;;;13.20;6.80;;;22.70;35.00;;;;;;6144602;28;80816;-66
2022/02/28 00:29:43;;;;;;;10.95;7.05;;;22.70;35.00;;;;;;6156444;28;80630;-68
2022/02/28 00:32:44;;;;;;;10.20;6.30;;;22.70;35.00;;;;;;6186997;28;80738;-66
2022/02/28 00:35:44;;;;;;;11.60;6.82;;;22.70;35.10;;;;;;6181340;28;81548;-66
2022/02/28 00:38:45;;;;;;;10.65;6.60;;;22.70;34.90;;;;;;6182632;28;81695;-66
2022/02/28 00:41:45;;;;;;;11.65;6.60;;;22.70;34.90;;;;;;6153079;28;80101;-66
2022/02/28 00:44:46;;;;;;;11.60;6.43;;;22.70;34.90;;;;;;6148721;28;80637;-65
2022/02/28 00:47:46;;;;;;;13.07;7.65;;;22.60;34.80;;;;;;6174569;28;83397;-67
2022/02/28 00:50:47;;;;;;;11.40;6.72;;;22.70;34.90;;;;;;6158103;28;82217;-67
2022/02/28 00:53:48;;;;;;;11.40;6.80;;;22.70;34.90;;;;;;6157355;28;80752;-67
2022/02/28 00:56:48;;;;;;;12.20;6.88;;;22.60;34.70;;;;;;6153393;28;82658;-67
2022/02/28 00:59:49;;;;;;;10.27;6.60;;;22.70;34.90;;;;;;6148038;28;80719;-64
2022/02/28 01:02:49;;;;;;;10.88;5.90;;;22.70;34.90;;;;;;6158490;28;80450;-64
2022/02/28 01:05:50;;;;;;;10.77;6.30;;;22.70;34.90;;;;;;6146952;28;80357;-67
2022/02/28 01:08:51;;;;;;;9.30;6.22;;;22.70;34.80;;;;;;6157459;28;82892;-65
2022/02/28 01:11:51;;;;;;;11.75;6.43;;;22.70;34.90;;;;;;6153743;28;80540;-67
2022/02/28 01:14:52;;;;;;;16.58;7.20;;;22.70;34.80;;;;;;6162054;28;83389;-67
2022/02/28 01:17:52;;;;;;;9.68;6.38;;;22.70;34.70;;;;;;6160626;28;80888;-67
2022/02/28 01:20:53;;;;;;;12.20;6.70;;;22.70;34.80;;;;;;6148045;28;83279;-67
2022/02/28 01:23:53;;;;;;;13.60;7.00;;;22.70;34.60;;;;;;6151745;28;81247;-67
2022/02/28 01:26:54;;;;;;;12.25;6.75;;;22.70;34.80;;;;;;6146465;28;81352;-65
2022/02/28 01:29:55;;;;;;;11.18;6.00;;;22.70;34.70;;;;;;6157533;28;81044;-66
2022/02/28 01:32:55;;;;;;;13.05;6.43;;;22.70;34.70;;;;;;6155805;28;83254;-66
2022/02/28 01:35:56;;;;;;;13.27;6.38;;;22.70;34.50;;;;;;6158469;28;81262;-66
2022/02/28 01:38:56;;;;;;;13.50;7.38;;;22.60;34.50;;;;;;6155056;28;82967;-66
2022/02/28 01:41:57;;;;;;;17.95;7.78;;;22.60;34.40;;;;;;6156734;28;82949;-65
2022/02/28 01:44:57;;;;;;;13.10;7.07;;;22.70;34.60;;;;;;6190315;28;81742;-66
2022/02/28 01:47:58;;;;;;;12.50;6.90;;;22.60;34.40;;;;;;6156672;28;82152;-65
2022/02/28 01:50:59;;;;;;;9.65;6.13;;;22.60;34.50;;;;;;6171892;28;82017;-63
2022/02/28 01:54:00;;;;;;;12.27;7.03;;;22.60;34.40;;;;;;6156657;28;83148;-64
2022/02/28 01:57:00;;;;;;;11.93;6.75;;;22.60;34.60;;;;;;6157763;28;81077;-65
2022/02/28 02:00:01;;;;;;;11.07;6.78;;;22.60;34.50;;;;;;6156446;28;83493;-65
2022/02/28 02:03:02;;;;;;;10.80;6.72;;;22.60;34.50;;;;;;6146038;28;80473;-65
2022/02/28 02:06:06;;;;;;;14.40;6.72;;;22.60;34.40;;;;;;6152485;28;81003;-64
2022/02/28 02:09:09;;;;;;;;;;;22.60;34.30;;;;;;6154556;28;82978;-65
2022/02/28 02:12:10;;;;;;;16.63;7.63;;;22.60;34.40;;;;;;6182005;28;81710;-64
2022/02/28 02:15:11;;;;;;;12.73;6.82;;;22.60;34.40;;;;;;6155020;28;80370;-65
2022/02/28 02:18:12;;;;;;;12.43;7.25;;;22.60;34.30;;;;;;6157991;28;82985;-66
2022/02/28 02:21:13;;;;;;;13.38;7.20;;;22.60;34.30;;;;;;6157171;28;81050;-67
2022/02/28 02:24:14;;;;;;;12.07;6.82;;;22.60;34.30;;;;;;6143886;28;80475;-65
2022/02/28 02:27:14;;;;;;;11.10;6.22;;;22.60;34.30;;;;;;6156449;28;80538;-65
2022/02/28 02:30:15;;;;;;;12.90;6.78;;;22.50;34.30;;;;;;6156333;28;82781;-65
2022/02/28 02:33:16;;;;;;;13.50;7.25;;;22.50;34.30;;;;;;6156586;28;82900;-65
2022/02/28 02:36:18;;;;;;;13.25;7.07;;;22.60;34.30;;;;;;6157368;28;81454;-65
2022/02/28 02:39:19;;;;;;;10.80;6.28;;;22.50;34.30;;;;;;6155076;28;82256;-65
2022/02/28 02:42:20;;;;;;;12.98;7.03;;;22.50;34.30;;;;;;6158972;28;80619;-66
2022/02/28 02:45:21;;;;;;;13.88;7.70;;;22.60;34.30;;;;;;6158128;28;81971;-66
2022/02/28 02:48:21;;;;;;;11.50;6.53;;;22.50;34.40;;;;;;6153154;28;83035;-66
2022/02/28 02:51:31;;;;;;;11.75;6.55;;;22.50;34.20;;;;;;6198335;28;83755;-66
2022/02/28 02:54:31;;;;;;;10.38;6.60;;;22.50;34.60;;;;;;6143787;28;82096;-66
2022/02/28 02:57:32;;;;;;;13.57;6.82;;;22.50;34.20;;;;;;6158746;28;83166;-66
2022/02/28 03:00:33;;;;;;;10.70;6.60;;;22.60;34.30;;;;;;6191565;28;82787;-65
2022/02/28 03:03:44;;;;;;;13.75;6.85;;;22.60;34.80;;;;;;6159965;28;87537;-65
2022/02/28 03:06:45;;;;;;;13.77;7.38;;;22.60;34.60;;;;;;6159274;28;81307;-66
2022/02/28 03:09:46;;;;;;;13.75;7.10;;;22.60;34.10;;;;;;6153419;28;81351;-66
2022/02/28 03:12:48;;;;;;;17.90;7.95;;;22.50;34.40;;;;;;6160999;28;82144;-66
2022/02/28 03:15:48;;;;;;;11.95;6.60;;;22.60;34.40;;;;;;6148544;28;83199;-65
2022/02/28 03:18:53;;;;;;;11.07;7.05;;;22.50;34.10;;;;;;6157561;28;83482;-66
2022/02/28 03:21:54;;;;;;;13.90;7.53;;;22.50;34.30;;;;;;6156785;28;82832;-66
2022/02/28 03:24:55;;;;;;;14.70;6.88;;;22.50;34.10;;;;;;6172212;28;83421;-66
2022/02/28 03:27:56;;;;;;;14.90;7.57;;;22.50;34.30;;;;;;6186782;28;83049;-66
2022/02/28 03:30:56;;;;;;;12.18;7.22;;;22.50;33.80;;;;;;6159856;28;83077;-66
2022/02/28 03:33:57;;;;;;;12.02;6.80;;;22.50;34.20;;;;;;6189476;28;83642;-66
2022/02/28 03:36:58;;;;;;;13.43;7.28;;;22.50;34.40;;;;;;6157188;28;82239;-66
2022/02/28 03:39:59;;;;;;;16.42;7.82;;;22.50;34.10;;;;;;6191651;28;82729;-66
2022/02/28 03:43:01;;;;;;;13.77;7.20;;;22.50;34.30;;;;;;6170983;28;83210;-66
2022/02/28 03:46:10;;;;;;;12.82;7.88;;;22.50;34.40;;;;;;6148584;28;80812;-66
2022/02/28 03:49:34;;;;;;;12.48;7.20;;;22.50;34.40;;;;;;6153950;28;82067;-66
2022/02/28 03:52:44;;;;;;;12.88;6.78;;;22.40;34.10;;;;;;6161158;28;87844;-66
2022/02/28 03:56:00;;;;;;;12.93;7.38;;;22.40;34.30;;;;;;6160053;28;80762;-66
2022/02/28 03:59:02;;;;;;;11.63;6.28;;;22.50;34.50;;;;;;6143978;28;82096;-66
2022/02/28 04:02:02;;;;;;;12.75;7.03;;;22.40;34.20;;;;;;6147590;28;82476;-67
2022/02/28 04:05:09;;;;;;;12.60;7.03;;;22.50;34.20;;;;;;6188197;28;81882;-66
2022/02/28 04:08:10;;;;;;;12.02;6.78;;;22.40;33.90;;;;;;6148192;28;83238;-66
2022/02/28 04:11:11;;;;;;;11.88;6.97;;;22.40;34.40;;;;;;6159799;28;80436;-66
2022/02/28 04:14:11;;;;;;;9.80;6.45;;;22.50;34.40;;;;;;6161154;28;81106;-66
2022/02/28 04:17:12;;;;;;;12.38;6.72;;;22.50;34.00;;;;;;6159032;28;81789;-66
2022/02/28 04:20:12;;;;;;;12.35;6.45;;;22.50;33.90;;;;;;6159841;28;80565;-66
2022/02/28 04:23:13;;;;;;;12.52;7.30;;;22.60;33.60;;;;;;6159054;28;83600;-65
2022/02/28 04:26:14;;;;;;;12.23;6.70;;;22.70;33.30;;;;;;6154192;28;82832;-66
2022/02/28 04:29:14;;;;;;;11.00;6.78;;;22.70;33.70;;;;;;6157489;28;82235;-65
2022/02/28 04:32:18;;;;;;;12.73;6.57;;;22.80;33.00;;;;;;6156108;28;81639;-64
2022/02/28 04:35:25;;;;;;;12.05;6.50;;;22.80;32.90;;;;;;6155403;28;87541;-63
2022/02/28 04:38:36;;;;;;;10.48;5.85;;;22.90;32.90;;;;;;6142684;28;82348;-64
2022/02/28 04:41:36;;;;;;;10.27;6.35;;;22.90;32.80;;;;;;6158385;28;83306;-64
2022/02/28 04:44:37;;;;;;;13.23;6.25;;;23.00;32.80;;;;;;6156146;28;81899;-63
2022/02/28 04:47:38;;;;;;;15.30;6.30;;;23.00;32.80;;;;;;6153339;28;82212;-63
2022/02/28 04:50:59;;;;;;;13.55;6.68;;;23.10;32.80;;;;;;6146391;28;87452;-64
2022/02/28 04:54:00;;;;;;;11.20;6.47;;;23.10;32.70;;;;;;6182326;28;82608;-63
2022/02/28 04:57:00;;;;;;;9.60;5.75;;;23.10;32.70;;;;;;6189790;28;82674;-62
2022/02/28 05:00:02;;;;;;;10.55;5.90;;;23.10;32.70;;;;;;6152021;28;82285;-63
2022/02/28 05:03:03;;;;;;;11.93;6.38;;;23.20;32.70;;;;;;6151373;28;82784;-61
2022/02/28 05:06:04;;;;;;;10.90;6.13;;;23.20;32.60;;;;;;6157536;28;83138;-59
2022/02/28 05:09:07;;;;;;;10.85;6.00;;;23.20;32.40;;;;;;6146559;28;82849;-61
2022/02/28 05:12:07;;;;;;;14.20;6.32;;;23.20;31.80;;;;;;6153464;28;83347;-61
2022/02/28 05:15:08;;;;;;;18.55;6.35;;;23.20;31.80;;;;;;6188632;28;82191;-63
2022/02/28 05:18:08;;;;;;;12.05;5.82;;;23.30;32.50;;;;;;6146721;28;82171;-64
2022/02/28 05:21:09;;;;;;;7.72;4.85;;;23.30;32.40;;;;;;6151401;28;83063;-61
2022/02/28 05:24:13;;;;;;;13.60;5.53;;;23.30;32.50;;;;;;6159672;28;82448;-61
2022/02/28 05:27:13;;;;;;;8.73;4.07;;;23.30;32.70;;;;;;6190924;28;83145;-63
2022/02/28 05:30:14;;;;;;;8.23;3.95;;;23.30;33.00;;;;;;6156846;28;83400;-63
2022/02/28 05:33:19;;;;;;;9.82;4.63;;;23.40;33.20;;;;;;6157192;28;80542;-64
2022/02/28 05:36:28;;;;;;;9.25;4.53;;;23.40;33.50;;;;;;6155621;28;83148;-62
2022/02/28 05:39:44;;;;;;;;;;;23.40;33.70;;;;;;6188320;28;81777;-58
2022/02/28 05:42:50;;;;;;;11.43;3.83;;;23.40;33.60;;;;;;6163709;28;80356;-65
2022/02/28 05:45:51;;;;;;;6.63;3.67;;;23.40;33.40;;;;;;6157588;28;80445;-61
2022/02/28 05:49:10;;;;;;;6.50;3.80;;;23.40;33.80;;;;;;6153789;28;80675;-63
2022/02/28 05:52:11;;;;;;;5.25;3.60;;;23.40;33.60;;;;;;6155973;28;82715;-59
2022/02/28 05:55:12;;;;;;;6.85;4.28;;;23.40;33.90;;;;;;6151396;28;81732;-62
2022/02/28 05:58:14;;;;;;;6.15;3.55;;;23.30;34.00;;;;;;6151506;28;81780;-65
2022/02/28 06:01:14;;;;;;;10.43;3.67;;;23.30;34.10;;;;;;6152074;28;80651;-63
2022/02/28 06:04:15;;;;;;;6.55;3.47;;;23.30;34.00;;;;;;6155360;28;81355;-63
2022/02/28 06:07:15;;;;;;;4.07;2.72;;;23.30;34.00;;;;;;6155194;28;81550;-62
2022/02/28 06:10:16;;;;;;;4.47;3.08;;;23.20;34.00;;;;;;6157591;28;80811;-61
2022/02/28 06:13:17;;;;;;;5.18;2.97;;;23.20;34.10;;;;;;6154321;28;82005;-61
2022/02/28 06:16:17;;;;;;;10.13;3.15;;;23.30;34.60;;;;;;6158364;28;80533;-61
2022/02/28 06:19:18;;;;;;;4.78;2.72;;;23.40;34.80;;;;;;6154471;28;81193;-61
2022/02/28 06:22:18;;;;;;;9.18;3.65;;;23.40;34.70;;;;;;6158978;28;80334;-62
2022/02/28 06:25:19;;;;;;;4.63;3.33;;;23.50;34.70;;;;;;6177232;28;83229;-63
2022/02/28 06:28:22;;;;;;;9.15;3.47;;;23.50;34.60;;;;;;6157272;28;80711;-59
2022/02/28 06:31:23;;;;;;;7.05;3.30;;;23.50;35.40;;;;;;6157160;28;80984;-60
2022/02/28 06:34:24;;;;;;;4.70;3.15;;;23.50;34.90;;;;;;6156587;28;81493;-59
2022/02/28 06:37:24;;;;;;;5.25;3.45;;;23.50;35.30;;;;;;6161869;28;80594;-60
2022/02/28 06:40:25;;;;;;;6.15;3.28;;;23.50;36.10;;;;;;6153652;28;81544;-60
2022/02/28 06:43:26;;;;;;;6.88;3.67;;;23.50;37.00;;;;;;6146595;28;80528;-60
2022/02/28 06:46:29;;;;;;;7.63;3.97;;;23.50;37.10;;;;;;6154994;28;81214;-58
2022/02/28 06:49:30;;;;;;;6.70;3.83;;;23.50;36.60;;;;;;6140763;28;80998;-60
2022/02/28 06:52:30;;;;;;;8.90;3.55;;;23.50;36.80;;;;;;6153109;28;81097;-59
2022/02/28 06:55:31;;;;;;;6.00;3.63;;;23.50;36.60;;;;;;6156385;28;80522;-58
2022/02/28 06:58:31;;;;;;;5.53;3.45;;;23.40;36.90;;;;;;6154572;28;80788;-60
2022/02/28 07:01:35;;;;;;;6.55;3.63;;;23.40;36.50;;;;;;6155950;28;82212;-59
2022/02/28 07:04:52;;;;;;;6.13;3.28;;;23.40;36.60;;;;;;6141522;28;81514;-59
2022/02/28 07:07:52;;;;;;;7.22;3.75;;;23.40;36.50;;;;;;6149430;28;81790;-60
2022/02/28 07:10:53;;;;;;;5.50;3.30;;;23.40;36.60;;;;;;6146343;28;80672;-60
2022/02/28 07:13:53;;;;;;;7.82;3.92;;;23.40;37.00;;;;;;6157942;28;80419;-61
2022/02/28 07:16:54;;;;;;;6.28;3.42;;;23.40;36.80;;;;;;6157322;28;81366;-60
2022/02/28 07:19:54;;;;;;;5.75;3.55;;;23.40;36.70;;;;;;6152175;28;80505;-60
2022/02/28 07:22:55;;;;;;;6.88;3.78;;;23.40;36.70;;;;;;6153814;28;80604;-60
2022/02/28 07:25:56;;;;;;;5.57;3.45;;;23.30;36.80;;;;;;6147702;28;83611;-61
2022/02/28 07:28:57;;;;;;;6.43;3.58;;;23.20;36.60;;;;;;6145169;28;81279;-61
2022/02/28 07:31:57;;;;;;;6.93;4.13;;;23.20;36.70;;;;;;6155221;28;81830;-60
2022/02/28 07:34:58;;;;;;;9.65;3.97;;;23.20;37.10;;;;;;6148069;28;81745;-60
2022/02/28 07:37:58;;;;;;;8.77;3.15;;;23.20;36.70;;;;;;6155796;28;80312;-60
2022/02/28 07:40:59;;;;;;;8.07;3.42;;;23.10;36.80;;;;;;6151806;28;80379;-60
2022/02/28 07:43:59;;;;;;;8.95;3.53;;;23.10;36.90;;;;;;6151446;28;80363;-60
2022/02/28 07:47:00;;;;;;;7.20;3.17;;;23.10;37.00;;;;;;6162084;28;81282;-60
2022/02/28 07:50:00;;;;;;;5.53;3.28;;;23.00;37.10;;;;;;6161425;28;82255;-60
2022/02/28 07:53:01;;;;;;;4.35;2.63;;;23.00;37.10;;;;;;6157608;28;81459;-60
2022/02/28 07:56:02;;;;;;;5.35;2.88;;;23.00;37.50;;;;;;6159658;28;80616;-60
2022/02/28 07:59:02;;;;;;;5.45;2.90;;;23.00;37.40;;;;;;6159515;28;80556;-60
2022/02/28 08:02:03;;;;;;;4.88;2.67;;;23.00;37.50;;;;;;6153395;28;80688;-60
2022/02/28 08:05:03;;;;;;;3.47;2.45;;;23.00;37.40;;;;;;6155538;28;80534;-60
2022/02/28 08:08:04;;;;;;;5.60;2.72;;;23.00;37.40;;;;;;6144078;28;81583;-60
2022/02/28 08:11:04;;;;;;;4.22;2.80;;;23.00;37.60;;;;;;6159150;28;81196;-61
2022/02/28 08:14:05;;;;;;;4.57;2.78;;;23.00;38.20;;;;;;6159221;28;81097;-60
2022/02/28 08:17:05;;;;;;;3.85;2.67;;;23.00;37.60;;;;;;6159314;28;81504;-60
2022/02/28 08:20:06;;;;;;;3.63;2.60;;;23.00;37.50;;;;;;6160696;28;80658;-59
2022/02/28 08:23:07;;;;;;;5.55;2.92;;;23.00;37.50;;;;;;6146093;28;81904;-59
2022/02/28 08:26:08;;;;;;;5.00;3.05;;;22.90;37.40;;;;;;6145212;28;81630;-61
2022/02/28 08:29:08;;;;;;;5.30;2.72;;;22.90;37.40;;;;;;6144742;28;81432;-61
2022/02/28 08:32:09;;;;;;;4.93;3.15;;;22.90;37.40;;;;;;6160890;28;81584;-61
2022/02/28 08:35:10;;;;;;;7.40;3.42;;;22.90;37.40;;;;;;6161619;28;80340;-61
2022/02/28 08:38:11;;;;;;;6.22;3.15;;;22.90;37.30;;;;;;6159411;28;80681;-62
2022/02/28 08:41:12;;;;;;;6.53;2.90;;;22.90;37.90;;;;;;6148732;28;80596;-62
2022/02/28 08:44:12;;;;;;;4.40;2.88;;;22.90;36.90;;;;;;6140294;28;80364;-61
2022/02/28 08:47:13;;;;;;;3.85;2.83;;;23.00;36.70;;;;;;6155194;28;82155;-59
2022/02/28 08:50:16;;;;;;;6.70;2.85;;;23.10;36.60;;;;;;6157314;28;80331;-62
2022/02/28 08:53:17;;;;;;;4.38;2.55;;;23.20;36.70;;;;;;6156949;28;82871;-59
2022/02/28 08:56:17;;;;;;;4.93;2.58;;;23.30;36.70;;;;;;6158763;28;81527;-59
2022/02/28 08:59:18;;;;;;;4.53;2.50;;;23.40;36.50;;;;;;6147087;28;80930;-59
2022/02/28 09:02:19;;;;;;;3.50;2.60;;;23.50;36.30;;;;;;6158272;28;80501;-60
2022/02/28 09:05:19;;;;;;;4.65;2.47;;;23.60;36.00;;;;;;6141247;28;86301;-61
2022/02/28 09:08:20;;;;;;;5.45;2.70;;;23.70;35.90;;;;;;6155959;28;80801;-59
2022/02/28 09:11:22;;;;;;;4.25;2.40;;;23.90;36.10;;;;;;6158467;28;80380;-60
2022/02/28 09:14:23;;;;;;;6.82;3.47;;;24.00;35.30;;;;;;6155348;28;83431;-61
2022/02/28 09:17:23;;;;;;;6.18;3.08;;;24.00;34.50;;;;;;6157047;28;80521;-62
2022/02/28 09:20:24;;;;;;;5.78;3.45;;;24.00;33.90;;;;;;6150167;28;80315;-60
2022/02/28 09:23:24;;;;;;;11.18;3.47;;;24.10;33.40;;;;;;6155935;28;81778;-60
2022/02/28 09:26:25;;;;;;;6.90;3.08;;;24.10;33.40;;;;;;6157028;28;80616;-59
2022/02/28 09:29:26;;;;;;;5.93;3.00;;;24.20;32.30;;;;;;6152076;28;80461;-60
2022/02/28 09:32:26;;;;;;;3.75;2.85;;;24.30;32.10;;;;;;6156935;28;80267;-60
2022/02/28 09:35:27;;;;;;;7.63;3.90;;;24.30;31.80;;;;;;6156776;28;81230;-60
2022/02/28 09:38:28;;;;;;;4.95;3.30;;;24.30;31.60;;;;;;6157087;28;81449;-60
2022/02/28 09:41:29;;;;;;;4.28;2.92;;;24.30;31.50;;;;;;6170955;28;81368;-59
2022/02/28 09:44:49;;;;;;;3.75;2.80;;;24.20;31.20;;;;;;6153917;28;80549;-59
2022/02/28 09:48:08;;;;;;;10.23;3.70;;;24.20;31.00;;;;;;6141924;28;80374;-62
2022/02/28 09:51:27;;;;;;;6.50;3.42;;;23.90;30.10;;;;;;6161277;28;80572;-62
2022/02/28 09:54:46;;;;;;;7.82;3.15;;;23.60;30.10;;;;;;6159881;28;80730;-61
2022/02/28 09:58:05;;;;;;;7.20;3.20;;;23.50;30.10;;;;;;6160376;28;81531;-62
2022/02/28 10:01:15;;;;;;;7.00;3.45;;;23.30;30.00;;;;;;6152675;28;83241;-62
2022/02/28 10:04:21;;;;;;;7.95;3.08;;;23.20;30.00;;;;;;6157159;28;82952;-62
2022/02/28 10:07:22;;;;;;;7.47;3.63;;;22.90;29.90;;;;;;6151044;28;81955;-61
2022/02/28 10:10:22;;;;;;;5.20;3.05;;;22.80;30.10;;;;;;6157768;28;80528;-61
2022/02/28 10:13:23;;;;;;;5.63;2.88;;;22.60;30.10;;;;;;6146003;28;80773;-61
2022/02/28 10:16:24;;;;;;;4.43;2.70;;;22.50;30.20;;;;;;6150957;28;81532;-61
2022/02/28 10:19:24;;;;;;;9.15;3.60;;;22.40;30.40;;;;;;6145638;28;81866;-61
2022/02/28 10:22:25;;;;;;;6.35;2.97;;;22.40;30.30;;;;;;6162049;28;81709;-62
2022/02/28 10:25:26;;;;;;;6.10;3.15;;;22.30;30.30;;;;;;6140199;28;80327;-60
2022/02/28 10:28:32;;;;;;;5.95;2.83;;;22.20;30.30;;;;;;6181707;28;81987;-61
2022/02/28 10:32:02;;;;;;;6.75;2.67;;;22.10;30.90;;;;;;6141768;28;81113;-61
2022/02/28 10:39:24;;;;;;;5.57;2.40;;;21.90;30.20;;;;;;6136389;28;81389;-60
2022/02/28 10:42:24;;;;;;;5.63;3.05;;;22.00;30.90;;;;;;6156669;28;80451;-60
2022/02/28 10:45:25;;;;;;;4.85;2.45;;;22.10;31.40;;;;;;6141657;28;82729;-60
2022/02/28 10:48:25;;;;;;;3.58;2.30;;;22.20;31.50;;;;;;6157731;28;80452;-60
2022/02/28 10:51:27;;;;;;;5.82;2.53;;;22.30;31.40;;;;;;6155533;28;82050;-59
2022/02/28 10:54:28;;;;;;;4.53;2.40;;;22.40;31.50;;;;;;6159211;28;81151;-60
2022/02/28 10:57:28;;;;;;;6.05;2.47;;;22.40;31.60;;;;;;6155505;28;81518;-61
2022/02/28 11:00:29;;;;;;;3.75;2.20;;;22.50;31.90;;;;;;6157329;28;80849;-60
2022/02/28 11:03:29;;;;;;;3.05;1.95;;;22.50;31.80;;;;;;6151683;28;81733;-62
2022/02/28 11:06:30;;;;;;;5.57;2.55;;;22.60;31.70;;;;;;6159199;28;80406;-61
2022/02/28 11:09:30;;;;;;;4.32;2.13;;;22.60;31.70;;;;;;6178940;28;80270;-63
2022/02/28 11:12:31;;;;;;;4.68;2.30;;;22.60;31.60;;;;;;6149285;28;81303;-60
2022/02/28 11:15:32;;;;;;;5.32;2.55;;;22.70;31.60;;;;;;6161522;28;80684;-61
2022/02/28 11:18:32;;;;;;;5.72;2.03;;;22.80;31.60;;;;;;6162231;28;80592;-62
2022/02/28 11:21:35;;;;;;;4.85;2.20;;;22.80;31.20;;;;;;6149947;28;80575;-61
2022/02/28 11:24:36;;;;;;;3.85;2.17;;;23.00;30.70;;;;;;6150707;28;80591;-61
2022/02/28 11:27:36;;;;;;;4.13;1.90;;;23.10;30.70;;;;;;6161791;28;80442;-60
2022/02/28 11:30:37;;;;;;;3.10;1.80;;;23.20;30.40;;;;;;6157580;28;80554;-60
2022/02/28 11:33:39;;;;;;;2.08;1.50;;;23.30;30.40;;;;;;6162639;28;80939;-61
2022/02/28 11:36:39;;;;;;;3.53;1.70;;;23.40;30.40;;;;;;6162132;28;81002;-64
2022/02/28 11:39:41;;;;;;;4.03;1.60;;;23.40;30.40;;;;;;6151126;28;80615;-59
2022/02/28 11:42:41;;;;;;;4.53;1.40;;;23.40;30.40;;;;;;6152021;28;80386;-62
2022/02/28 11:45:42;;;;;;;4.38;2.05;;;23.50;30.80;;;;;;6147828;28;80615;-62
2022/02/28 11:48:43;;;;;;;2.75;1.80;;;23.50;30.20;;;;;;6145542;28;80688;-63
2022/02/28 11:51:44;;;;;;;3.38;2.13;;;23.50;30.00;;;;;;6161795;28;80722;-63
2022/02/28 11:54:44;;;;;;;4.40;2.03;;;23.50;29.90;;;;;;6146248;28;80410;-65
2022/02/28 11:57:45;;;;;;;5.15;1.92;;;23.50;29.80;;;;;;6161506;28;80600;-60
2022/02/28 12:00:45;;;;;;;3.55;2.15;;;23.50;29.80;;;;;;6157949;28;80356;-61
2022/02/28 12:03:46;;;;;;;2.30;1.90;;;23.50;29.80;;;;;;6160970;28;81558;-61
2022/02/28 12:06:46;;;;;;;5.75;1.85;;;23.50;29.90;;;;;;6160023;28;80501;-62
2022/02/28 12:09:47;;;;;;;3.58;2.10;;;23.50;30.00;;;;;;6157954;28;81043;-63
2022/02/28 12:12:47;;;;;;;4.40;2.20;;;23.40;29.90;;;;;;6162257;28;80969;-62
2022/02/28 12:15:49;;;;;;;3.90;2.53;;;23.40;30.00;;;;;;6160028;28;80642;-62
2022/02/28 12:18:50;;;;;;;4.90;2.63;;;23.30;29.80;;;;;;6159254;28;80314;-63
2022/02/28 12:21:50;;;;;;;5.05;2.90;;;23.30;29.30;;;;;;6152822;28;80929;-61
2022/02/28 12:24:51;;;;;;;6.70;3.08;;;23.30;31.00;;;;;;6146798;28;80858;-62
2022/02/28 12:27:51;;;;;;;6.40;2.60;;;23.10;30.00;;;;;;6159080;28;80545;-61
2022/02/28 12:30:52;;;;;;;7.03;2.13;;;23.00;29.30;;;;;;6144391;28;80455;-62
2022/02/28 12:33:52;;;;;;;3.90;2.47;;;22.80;29.40;;;;;;6143247;28;81594;-64
2022/02/28 12:36:53;;;;;;;4.90;2.42;;;22.50;29.40;;;;;;6142141;28;80806;-62
2022/02/28 12:39:54;;;;;;;3.45;2.40;;;22.40;28.80;;;;;;6150729;28;80661;-63
2022/02/28 12:42:54;;;;;;;6.95;2.53;;;22.30;28.40;;;;;;6153552;28;80271;-63
2022/02/28 12:45:55;;;;;;;5.50;2.65;;;22.10;29.10;;;;;;6155990;28;82332;-63
2022/02/28 12:48:55;;;;;;;4.35;2.50;;;22.10;28.50;;;;;;6151744;28;81344;-63
2022/02/28 12:51:56;;;;;;;7.47;2.90;;;22.00;28.00;;;;;;6154553;28;81352;-63
2022/02/28 12:54:56;;;;;;;5.05;2.80;;;21.90;28.20;;;;;;6150315;28;83092;-63
2022/02/28 12:59:38;;;;;;;5.43;2.13;;;21.60;28.20;;;;;;6200190;27;76057;-64
2022/02/28 13:02:39;;;;;;;4.78;2.20;;;21.80;29.20;;;;;;6156518;28;82369;-65
2022/02/28 13:05:40;;;;;;;6.70;2.85;;;21.90;29.20;;;;;;6160249;28;81025;-62
2022/02/28 13:08:40;;;;;;;3.92;2.38;;;22.00;29.30;;;;;;6154789;28;81878;-62
2022/02/28 13:11:41;;;;;;;3.70;2.30;;;22.10;29.30;;;;;;6159868;28;80532;-62
2022/02/28 13:14:41;;;;;;;4.63;2.38;;;22.20;29.30;;;;;;6155887;28;81108;-63
2022/02/28 13:17:43;;;;;;;4.43;2.20;;;22.20;29.10;;;;;;6160416;28;80598;-61
2022/02/28 13:20:43;;;;;;;3.83;2.25;;;22.20;29.60;;;;;;6153971;28;80348;-63
2022/02/28 13:23:44;;;;;;;3.80;2.60;;;22.20;29.20;;;;;;6153734;28;80155;-59
2022/02/28 13:26:44;;;;;;;3.05;2.28;;;22.30;29.10;;;;;;6170820;28;81417;-60
2022/02/28 13:29:45;;;;;;;3.20;2.20;;;22.30;29.00;;;;;;6155571;28;83298;-60
2022/02/28 13:32:45;;;;;;;5.43;2.90;;;22.40;29.20;;;;;;6142694;28;80742;-60
2022/02/28 13:35:46;;;;;;;4.50;2.63;;;22.40;29.00;;;;;;6154053;28;80301;-60
2022/02/28 13:38:46;;;;;;;2.75;2.15;;;22.40;28.80;;;;;;6152897;28;80651;-59
2022/02/28 13:41:47;;;;;;;3.78;2.50;;;22.50;28.80;;;;;;6158004;28;80550;-60
2022/02/28 13:44:47;;;;;;;4.40;2.40;;;22.60;28.80;;;;;;6154869;28;80618;-60
2022/02/28 13:47:49;;;;;;;4.88;2.70;;;22.60;28.70;;;;;;6152152;28;81671;-59
2022/02/28 13:50:49;;;;;;;7.82;3.00;;;22.60;28.60;;;;;;6160871;28;80337;-60
2022/02/28 13:53:50;;;;;;;5.05;2.95;;;22.70;28.60;;;;;;6153578;28;80405;-60
2022/02/28 13:56:51;;;;;;;5.53;3.17;;;22.70;28.60;;;;;;6152132;28;80322;-61
2022/02/28 13:59:51;;;;;;;4.68;2.53;;;22.70;28.50;;;;;;6151970;28;80889;-61
2022/02/28 14:02:52;;;;;;;5.70;2.83;;;22.70;28.20;;;;;;6151654;28;80755;-60
2022/02/28 14:05:54;;;;;;;3.92;2.50;;;22.70;28.30;;;;;;6137721;28;80503;-61
2022/02/28 14:08:55;;;;;;;6.22;2.65;;;22.70;28.40;;;;;;6134330;28;86155;-61
2022/02/28 14:11:55;;;;;;;5.05;2.30;;;22.70;28.60;;;;;;6134474;28;80356;-61
2022/02/28 14:14:56;;;;;;;4.38;2.75;;;22.80;28.80;;;;;;6136373;28;81167;-63
2022/02/28 14:17:56;;;;;;;2.85;2.20;;;22.80;28.90;;;;;;6136539;28;80210;-61
2022/02/28 14:20:57;;;;;;;4.45;2.42;;;22.80;29.00;;;;;;6134335;28;82424;-64
2022/02/28 14:24:16;;;;;;;3.90;2.40;;;22.80;29.10;;;;;;6138225;28;80807;-65
2022/02/28 14:27:46;;;;;;;4.18;2.83;;;22.90;29.30;;;;;;6121247;28;80191;-61
2022/02/28 14:31:04;;;;;;;3.50;2.50;;;22.90;29.50;;;;;;6126687;28;80519;-61
2022/02/28 14:34:05;;;;;;;3.90;2.25;;;22.90;29.50;;;;;;6137613;28;81750;-61
2022/02/28 14:37:05;;;;;;;3.17;2.33;;;22.90;29.60;;;;;;6146820;28;80904;-61
2022/02/28 14:40:06;;;;;;;3.88;2.53;;;23.00;29.70;;;;;;6140861;28;80918;-61
2022/02/28 14:43:06;;;;;;;4.05;2.53;;;23.00;29.80;;;;;;6136422;28;80234;-61
2022/02/28 14:46:07;;;;;;;2.85;2.20;;;23.00;29.80;;;;;;6139081;28;80438;-61
2022/02/28 14:49:08;;;;;;;2.65;2.10;;;23.00;29.80;;;;;;6146652;28;80549;-60
2022/02/28 14:52:08;;;;;;;3.47;2.15;;;23.00;29.90;;;;;;6134487;28;80734;-60
2022/02/28 14:55:09;;;;;;;4.15;2.15;;;23.00;29.90;;;;;;6124390;28;80958;-64
2022/02/28 14:58:10;;;;;;;4.40;2.85;;;23.00;30.00;;;;;;6135089;28;85797;-63
2022/02/28 15:01:10;;;;;;;12.85;3.40;;;23.00;30.30;;;;;;6123964;28;82041;-63
2022/02/28 15:04:13;;;;;;;7.32;2.65;;;23.00;30.40;;;;;;6135692;28;81362;-63
2022/02/28 15:07:14;;;;;;;4.35;2.30;;;23.00;30.70;;;;;;6127445;28;81160;-63
2022/02/28 15:10:14;;;;;;;3.08;2.25;;;23.10;30.90;;;;;;6130606;28;86855;-64
2022/02/28 15:13:15;;;;;;;3.47;2.40;;;23.00;30.80;;;;;;6131914;28;80887;-62
2022/02/28 15:16:16;;;;;;;4.30;2.58;;;23.10;31.00;;;;;;6128647;28;80463;-62
2022/02/28 15:19:16;;;;;;;4.72;2.38;;;23.10;31.10;;;;;;6139734;28;81423;-63
2022/02/28 15:22:17;;;;;;;2.40;1.90;;;23.00;31.20;;;;;;6118757;28;80837;-63
2022/02/28 15:25:17;;;;;;;2.90;2.25;;;23.10;31.30;;;;;;6120330;28;80367;-63
2022/02/28 15:28:18;;;;;;;3.67;2.45;;;23.10;31.40;;;;;;6121036;28;82339;-62
2022/02/28 15:31:18;;;;;;;2.65;2.03;;;23.10;31.30;;;;;;6121601;28;80547;-63
2022/02/28 15:34:19;;;;;;;6.13;2.40;;;23.10;31.50;;;;;;6119848;28;80451;-62
2022/02/28 15:37:19;;;;;;;3.17;2.00;;;23.20;31.70;;;;;;6121021;28;81306;-63
2022/02/28 15:40:21;;;;;;;3.47;2.40;;;23.20;31.70;;;;;;6118059;28;81103;-62
2022/02/28 15:43:21;;;;;;;3.00;2.30;;;23.20;31.50;;;;;;6123936;28;80890;-63
2022/02/28 15:46:22;;;;;;;3.90;2.13;;;23.20;31.60;;;;;;6124176;28;80291;-63
2022/02/28 15:49:22;;;;;;;2.95;2.42;;;23.20;31.80;;;;;;6136905;28;80791;-64